createdAt,value
2022-10-18T00:03:09.641Z,18.80
2022-10-18T00:08:12.005Z,18.70
2022-10-18T00:13:14.468Z,18.80
2022-10-18T00:18:16.911Z,19.00
2022-10-18T00:23:19.277Z,19.10
2022-10-18T00:28:21.628Z,19.10
2022-10-18T00:33:24.016Z,18.90
2022-10-18T00:38:26.414Z,19.00
2022-10-18T00:43:28.771Z,19.00
2022-10-18T00:48:31.264Z,18.90
2022-10-18T00:53:33.598Z,18.90
2022-10-18T00:58:36.102Z,18.80
2022-10-18T01:03:38.843Z,19.00
2022-10-18T01:08:49.997Z,18.70
2022-10-18T01:14:18.574Z,18.80
2022-10-18T01:19:58.528Z,18.70
2022-10-18T01:25:19.436Z,18.70
2022-10-18T01:30:47.570Z,19.00
2022-10-18T01:35:57.271Z,19.10
2022-10-18T01:41:01.936Z,19.20
2022-10-18T01:46:05.145Z,19.20
2022-10-18T01:51:07.466Z,19.10
2022-10-18T01:56:28.663Z,19.20
2022-10-18T02:01:39.776Z,19.30
2022-10-18T02:06:45.040Z,19.30
2022-10-18T02:11:49.879Z,19.20
2022-10-18T02:16:56.801Z,19.20
2022-10-18T02:22:00.102Z,19.30
2022-10-18T02:27:03.237Z,19.30
2022-10-18T02:32:11.210Z,19.20
2022-10-18T02:37:14.420Z,19.00
2022-10-18T02:42:16.883Z,18.90
2022-10-18T02:47:19.161Z,19.00
2022-10-18T02:52:21.526Z,18.90
2022-10-18T02:57:24.044Z,18.00
2022-10-18T03:02:26.995Z,18.90
2022-10-18T03:07:29.513Z,18.90
2022-10-18T03:12:32.022Z,18.90
2022-10-18T03:17:34.626Z,19.00
2022-10-18T03:22:37.072Z,19.00
2022-10-18T03:27:39.446Z,19.10
2022-10-18T03:32:41.957Z,19.20
2022-10-18T03:37:44.532Z,19.20
2022-10-18T03:42:46.816Z,19.30
2022-10-18T03:47:49.067Z,19.20
2022-10-18T03:52:51.372Z,19.10
2022-10-18T03:57:53.753Z,19.10
2022-10-18T04:02:56.214Z,19.10
2022-10-18T04:07:58.749Z,19.00
2022-10-18T04:13:01.078Z,19.00
2022-10-18T04:18:03.795Z,19.00
2022-10-18T04:23:07.129Z,19.00
2022-10-18T04:28:09.449Z,18.90
2022-10-18T04:33:11.790Z,19.70
2022-10-18T04:38:14.658Z,19.00
2022-10-18T04:43:17.242Z,18.90
2022-10-18T04:48:20.696Z,18.90
2022-10-18T04:53:23.103Z,19.00
2022-10-18T04:58:25.494Z,18.90
2022-10-18T05:03:27.829Z,19.00
2022-10-18T05:08:34.979Z,19.00
2022-10-18T05:13:38.238Z,18.90
2022-10-18T05:18:40.697Z,18.80
2022-10-18T05:23:43.072Z,18.80
2022-10-18T05:28:45.491Z,18.90
2022-10-18T05:33:47.958Z,19.00
2022-10-18T05:38:50.305Z,19.00
2022-10-18T05:43:52.698Z,18.90
2022-10-18T05:48:55.017Z,19.00
2022-10-18T05:53:57.834Z,18.90
2022-10-18T05:59:00.237Z,18.80
2022-10-18T06:04:02.662Z,18.90
2022-10-18T06:09:06.656Z,18.90
2022-10-18T06:14:09.971Z,18.90
2022-10-18T06:19:12.274Z,18.80
2022-10-18T06:24:14.698Z,18.70
2022-10-18T06:29:17.222Z,18.60
2022-10-18T06:34:19.555Z,18.60
2022-10-18T06:39:21.825Z,18.60
2022-10-18T06:44:24.262Z,18.50
2022-10-18T06:49:26.681Z,18.30
2022-10-18T06:54:28.972Z,18.30
2022-10-18T06:59:31.629Z,18.30
2022-10-18T07:04:35.124Z,18.30
2022-10-18T07:09:37.756Z,18.30
2022-10-18T07:14:40.020Z,18.30
2022-10-18T07:19:43.605Z,18.30
2022-10-18T07:24:46.110Z,18.30
2022-10-18T07:29:49.549Z,18.30
2022-10-18T07:34:52.814Z,18.20
2022-10-18T07:39:55.342Z,18.30
2022-10-18T07:44:57.682Z,18.40
2022-10-18T07:49:59.993Z,18.50
2022-10-18T07:55:02.490Z,18.40
2022-10-18T08:00:05.494Z,18.50
2022-10-18T08:05:13.832Z,18.50
2022-10-18T08:10:16.189Z,18.40
2022-10-18T08:15:18.550Z,18.20
2022-10-18T08:20:30.861Z,18.20
2022-10-18T08:30:41.470Z,18.10
2022-10-18T08:35:44.085Z,18.00
2022-10-18T08:40:47.143Z,17.80
2022-10-18T08:45:50.819Z,17.70
2022-10-18T08:50:56.158Z,17.90
2022-10-18T08:56:05.282Z,18.00
2022-10-18T09:01:19.610Z,18.00
2022-10-18T09:06:57.761Z,17.80
2022-10-18T09:12:31.041Z,18.20
2022-10-18T09:17:57.225Z,18.60
2022-10-18T09:23:11.235Z,18.60
2022-10-18T09:28:53.105Z,18.80
2022-10-18T09:34:01.856Z,18.70
2022-10-18T09:39:14.372Z,18.60
2022-10-18T09:44:37.305Z,18.70
2022-10-18T09:49:46.941Z,18.60
2022-10-18T09:55:01.056Z,18.30
2022-10-18T10:00:13.759Z,18.40
2022-10-18T10:05:22.082Z,18.60
2022-10-18T10:10:30.057Z,18.60
2022-10-18T10:15:39.392Z,18.40
2022-10-18T10:20:51.041Z,18.10
2022-10-18T10:25:56.141Z,18.20
2022-10-18T10:31:17.293Z,17.90
2022-10-18T10:36:21.341Z,17.90
2022-10-18T10:41:24.616Z,17.70
2022-10-18T10:46:35.503Z,17.60
2022-10-18T10:51:39.737Z,17.70
2022-10-18T10:57:04.774Z,18.00
2022-10-18T11:02:19.154Z,17.90
2022-10-18T11:07:33.409Z,17.70
2022-10-18T11:13:03.679Z,17.80
2022-10-18T11:18:31.433Z,17.30
2022-10-18T11:23:39.143Z,17.70
2022-10-18T11:29:02.619Z,17.80
2022-10-18T11:34:44.806Z,18.20
2022-10-18T11:40:19.976Z,18.20
2022-10-18T11:45:54.552Z,18.30
2022-10-18T11:51:09.499Z,18.60
2022-10-18T11:56:27.409Z,18.50
2022-10-18T12:01:39.278Z,18.70
2022-10-18T12:06:44.338Z,18.90
2022-10-18T12:11:55.715Z,19.20
2022-10-18T12:17:35.926Z,19.00
2022-10-18T12:22:42.761Z,19.20
2022-10-18T12:28:07.826Z,19.40
2022-10-18T12:33:28.309Z,18.90
2022-10-18T12:38:36.616Z,19.30
2022-10-18T12:43:39.030Z,19.50
2022-10-18T12:48:45.531Z,19.70
2022-10-18T12:53:56.364Z,19.10
2022-10-18T12:59:16.935Z,18.10
2022-10-18T13:04:28.349Z,19.50
2022-10-18T13:09:39.775Z,19.00
2022-10-18T13:15:12.588Z,18.40
2022-10-18T13:20:31.411Z,18.80
2022-10-18T13:26:21.572Z,18.90
2022-10-18T13:31:29.785Z,18.60
2022-10-18T13:36:33.075Z,18.60
2022-10-18T13:41:47.537Z,18.50
2022-10-18T13:46:49.873Z,18.50
2022-10-18T13:52:19.586Z,18.30
2022-10-18T13:57:36.559Z,18.10
2022-10-18T14:02:59.939Z,17.90
2022-10-18T14:14:01.736Z,17.90
2022-10-18T14:19:20.237Z,17.90
2022-10-18T14:24:26.026Z,18.00
2022-10-18T14:29:28.366Z,18.00
2022-10-18T14:34:30.743Z,17.70
2022-10-18T14:39:33.254Z,18.00
2022-10-18T14:44:35.731Z,17.90
2022-10-18T14:49:46.610Z,17.60
2022-10-18T14:54:49.085Z,17.70
2022-10-18T14:59:57.933Z,17.90
2022-10-18T15:05:05.870Z,18.30
2022-10-18T15:10:14.378Z,18.40
2022-10-18T15:15:30.324Z,18.40
2022-10-18T15:20:39.244Z,18.00
2022-10-18T15:25:41.628Z,18.10
2022-10-18T15:30:43.935Z,18.10
2022-10-18T15:35:46.471Z,18.40
2022-10-18T15:40:48.727Z,18.30
2022-10-18T15:45:52.191Z,18.30
2022-10-18T15:50:56.376Z,18.00
2022-10-18T15:56:08.969Z,18.00
2022-10-18T16:01:24.256Z,17.90
2022-10-18T16:06:26.576Z,17.90
2022-10-18T16:11:29.639Z,18.00
2022-10-18T16:16:31.986Z,17.90
2022-10-18T16:21:37.270Z,17.90
2022-10-18T16:26:39.592Z,17.90
2022-10-18T16:31:42.289Z,18.00
2022-10-18T16:36:44.787Z,18.00
2022-10-18T16:41:48.018Z,18.10
2022-10-18T16:46:52.603Z,18.20
2022-10-18T16:51:59.558Z,18.30
2022-10-18T16:57:02.184Z,18.40
2022-10-18T17:02:08.923Z,18.30
2022-10-18T17:07:23.180Z,18.40
2022-10-18T17:12:25.490Z,18.40
2022-10-18T17:17:27.917Z,18.60
2022-10-18T17:22:30.308Z,18.60
2022-10-18T17:27:32.842Z,18.70
2022-10-18T17:32:35.373Z,18.70
2022-10-18T17:37:43.931Z,18.70
2022-10-18T17:42:48.225Z,18.70
2022-10-18T17:47:50.666Z,18.60
2022-10-18T17:52:53.074Z,18.40
2022-10-18T17:57:55.485Z,18.40
2022-10-18T18:03:02.939Z,18.40
2022-10-18T18:08:05.657Z,18.40
2022-10-18T18:13:08.163Z,18.40
2022-10-18T18:18:10.832Z,18.40
2022-10-18T18:23:13.125Z,18.30
2022-10-18T18:28:15.485Z,18.20
2022-10-18T18:33:17.959Z,18.20
2022-10-18T18:38:20.285Z,18.10
2022-10-18T18:43:23.496Z,17.90
2022-10-18T18:48:27.446Z,17.90
2022-10-18T18:53:30.177Z,17.70
2022-10-18T18:58:33.997Z,17.80
2022-10-18T19:03:38.730Z,17.70
2022-10-18T19:08:42.257Z,17.80
2022-10-18T19:13:44.886Z,17.70
2022-10-18T19:18:56.629Z,17.70
2022-10-18T19:23:59.110Z,17.70
2022-10-18T19:29:04.549Z,17.60
2022-10-18T19:34:09.671Z,17.50
2022-10-18T19:39:27.909Z,17.40
2022-10-18T19:44:32.048Z,17.40
2022-10-18T19:49:34.520Z,17.40
2022-10-18T19:54:37.067Z,17.40
2022-10-18T20:04:46.909Z,17.20
2022-10-18T20:09:49.333Z,17.20
2022-10-18T20:14:51.705Z,17.20
2022-10-18T20:19:54.114Z,17.10
2022-10-18T20:24:57.706Z,17.10
2022-10-18T20:30:00.054Z,17.00
2022-10-18T20:35:02.391Z,17.00
2022-10-18T20:40:04.942Z,17.00
2022-10-18T20:45:08.341Z,16.90
2022-10-18T20:50:10.925Z,16.90
2022-10-18T20:55:13.319Z,16.90
2022-10-18T21:00:15.724Z,16.90
2022-10-18T21:05:18.340Z,16.80
2022-10-18T21:10:20.657Z,16.90
2022-10-18T21:15:22.986Z,16.70
2022-10-18T21:20:25.414Z,16.70
2022-10-18T21:25:27.757Z,16.60
2022-10-18T21:30:30.014Z,16.50
2022-10-18T21:35:38.482Z,16.40
2022-10-18T21:40:44.439Z,16.40
2022-10-18T21:45:46.758Z,15.90
2022-10-18T21:50:49.135Z,15.70
2022-10-18T21:55:51.545Z,15.70
2022-10-18T22:00:53.947Z,15.70
2022-10-18T22:06:01.921Z,15.90
2022-10-18T22:11:04.653Z,15.90
2022-10-18T22:16:08.088Z,15.90
2022-10-18T22:21:15.285Z,15.90
2022-10-18T22:26:21.241Z,15.90
2022-10-18T22:31:26.181Z,15.80
2022-10-18T22:36:28.970Z,15.80
2022-10-18T22:41:31.583Z,15.80
2022-10-18T22:46:34.970Z,15.80
2022-10-18T22:51:37.343Z,15.60
2022-10-18T22:56:39.788Z,15.50
2022-10-18T23:01:42.108Z,15.50
2022-10-18T23:06:44.466Z,15.50
2022-10-18T23:11:47.939Z,15.50
2022-10-18T23:16:50.211Z,15.30
2022-10-18T23:21:52.533Z,14.90
2022-10-18T23:26:54.834Z,14.10
2022-10-18T23:31:57.185Z,14.10
2022-10-18T23:36:59.505Z,14.40
2022-10-18T23:42:01.759Z,14.60
2022-10-18T23:47:04.250Z,14.60
2022-10-18T23:52:06.810Z,14.70
2022-10-18T23:57:09.314Z,14.50
